sensor_id;sensor_type;location;lat;lon;timestamp;temperature;humidity
14317;DHT22;7242;50.858;6.586;2023-02-11T00:01:40;7.60;99.90
14317;DHT22;7242;50.858;6.586;2023-02-11T00:07:42;7.70;99.90
14317;DHT22;7242;50.858;6.586;2023-02-11T00:10:42;7.70;99.90
14317;DHT22;7242;50.858;6.586;2023-02-11T00:13:46;7.60;99.90
14317;DHT22;7242;50.858;6.586;2023-02-11T00:19:51;7.60;99.90
14317;DHT22;7242;50.858;6.586;2023-02-11T00:25:53;7.50;99.90
14317;DHT22;7242;50.858;6.586;2023-02-11T00:34:57;7.40;99.90
14317;DHT22;7242;50.858;6.586;2023-02-11T00:37:58;7.40;99.90
14317;DHT22;7242;50.858;6.586;2023-02-11T00:44:01;7.30;99.90
14317;DHT22;7242;50.858;6.586;2023-02-11T00:47:02;7.30;99.90
14317;DHT22;7242;50.858;6.586;2023-02-11T00:50:03;7.30;99.90
14317;DHT22;7242;50.858;6.586;2023-02-11T00:56:06;7.10;99.90
14317;DHT22;7242;50.858;6.586;2023-02-11T00:59:07;7.20;99.90
14317;DHT22;7242;50.858;6.586;2023-02-11T01:08:10;7.10;99.90
14317;DHT22;7242;50.858;6.586;2023-02-11T01:11:15;7.10;99.90
14317;DHT22;7242;50.858;6.586;2023-02-11T01:14:18;7.00;99.90
14317;DHT22;7242;50.858;6.586;2023-02-11T01:20:26;6.80;99.90
14317;DHT22;7242;50.858;6.586;2023-02-11T01:23:27;6.80;99.90
14317;DHT22;7242;50.858;6.586;2023-02-11T01:29:30;6.80;99.90
14317;DHT22;7242;50.858;6.586;2023-02-11T01:32:32;6.70;99.90
14317;DHT22;7242;50.858;6.586;2023-02-11T01:35:32;6.80;99.90
14317;DHT22;7242;50.858;6.586;2023-02-11T01:44:37;6.70;99.90
14317;DHT22;7242;50.858;6.586;2023-02-11T01:50:40;6.80;99.90
14317;DHT22;7242;50.858;6.586;2023-02-11T01:53:43;6.90;99.90
14317;DHT22;7242;50.858;6.586;2023-02-11T01:57:04;7.00;99.90
14317;DHT22;7242;50.858;6.586;2023-02-11T02:00:36;7.00;99.90
14317;DHT22;7242;50.858;6.586;2023-02-11T02:03:41;7.10;99.90
14317;DHT22;7242;50.858;6.586;2023-02-11T02:06:51;7.10;99.90
14317;DHT22;7242;50.858;6.586;2023-02-11T02:10:01;7.10;99.90
14317;DHT22;7242;50.858;6.586;2023-02-11T02:13:03;7.20;99.90
14317;DHT22;7242;50.858;6.586;2023-02-11T02:16:06;7.20;99.90
14317;DHT22;7242;50.858;6.586;2023-02-11T02:22:46;7.20;99.90
14317;DHT22;7242;50.858;6.586;2023-02-11T02:33:04;7.20;99.90
14317;DHT22;7242;50.858;6.586;2023-02-11T02:39:25;7.10;99.90
14317;DHT22;7242;50.858;6.586;2023-02-11T02:42:26;7.10;99.90
14317;DHT22;7242;50.858;6.586;2023-02-11T02:45:27;7.00;99.90
14317;DHT22;7242;50.858;6.586;2023-02-11T02:48:32;7.00;99.90
14317;DHT22;7242;50.858;6.586;2023-02-11T02:51:41;7.00;99.90
14317;DHT22;7242;50.858;6.586;2023-02-11T03:08:01;6.70;99.90
14317;DHT22;7242;50.858;6.586;2023-02-11T03:11:06;6.70;99.90
14317;DHT22;7242;50.858;6.586;2023-02-11T03:14:11;6.60;99.90
14317;DHT22;7242;50.858;6.586;2023-02-11T03:17:14;6.60;99.90
14317;DHT22;7242;50.858;6.586;2023-02-11T03:20:17;6.50;99.90
14317;DHT22;7242;50.858;6.586;2023-02-11T03:23:36;6.50;99.90
14317;DHT22;7242;50.858;6.586;2023-02-11T03:26:53;6.40;99.90
14317;DHT22;7242;50.858;6.586;2023-02-11T03:30:05;6.40;99.90
14317;DHT22;7242;50.858;6.586;2023-02-11T03:33:15;6.40;99.90
14317;DHT22;7242;50.858;6.586;2023-02-11T03:36:40;6.30;99.90
14317;DHT22;7242;50.858;6.586;2023-02-11T03:39:53;6.30;99.90
14317;DHT22;7242;50.858;6.586;2023-02-11T03:43:02;6.40;99.90
14317;DHT22;7242;50.858;6.586;2023-02-11T03:46:05;6.40;99.90
14317;DHT22;7242;50.858;6.586;2023-02-11T03:49:10;6.30;99.90
14317;DHT22;7242;50.858;6.586;2023-02-11T03:52:13;6.20;99.90
14317;DHT22;7242;50.858;6.586;2023-02-11T03:55:17;6.40;99.90
14317;DHT22;7242;50.858;6.586;2023-02-11T03:58:18;6.40;99.90
14317;DHT22;7242;50.858;6.586;2023-02-11T04:04:20;6.50;99.90
14317;DHT22;7242;50.858;6.586;2023-02-11T04:16:27;6.70;99.90
14317;DHT22;7242;50.858;6.586;2023-02-11T04:19:30;6.70;99.90
14317;DHT22;7242;50.858;6.586;2023-02-11T04:31:34;6.70;99.90
14317;DHT22;7242;50.858;6.586;2023-02-11T04:34:34;6.70;99.90
14317;DHT22;7242;50.858;6.586;2023-02-11T04:37:35;6.80;99.90
14317;DHT22;7242;50.858;6.586;2023-02-11T04:40:36;6.90;99.90
14317;DHT22;7242;50.858;6.586;2023-02-11T04:46:37;6.90;99.90
14317;DHT22;7242;50.858;6.586;2023-02-11T04:49:38;6.90;99.90
14317;DHT22;7242;50.858;6.586;2023-02-11T04:52:39;6.90;99.90
14317;DHT22;7242;50.858;6.586;2023-02-11T04:58:41;6.80;99.90
14317;DHT22;7242;50.858;6.586;2023-02-11T05:04:42;6.80;99.90
14317;DHT22;7242;50.858;6.586;2023-02-11T05:07:43;6.80;99.90
14317;DHT22;7242;50.858;6.586;2023-02-11T05:10:47;6.80;99.90
14317;DHT22;7242;50.858;6.586;2023-02-11T05:16:49;6.80;99.90
14317;DHT22;7242;50.858;6.586;2023-02-11T05:19:49;6.80;99.90
14317;DHT22;7242;50.858;6.586;2023-02-11T05:22:50;6.80;99.90
14317;DHT22;7242;50.858;6.586;2023-02-11T05:25:51;6.80;99.90
14317;DHT22;7242;50.858;6.586;2023-02-11T05:34:53;6.90;99.90
14317;DHT22;7242;50.858;6.586;2023-02-11T05:37:54;7.00;99.90
14317;DHT22;7242;50.858;6.586;2023-02-11T05:40:55;7.00;99.90
14317;DHT22;7242;50.858;6.586;2023-02-11T05:43:56;7.00;99.90
14317;DHT22;7242;50.858;6.586;2023-02-11T05:46:56;6.90;99.90
14317;DHT22;7242;50.858;6.586;2023-02-11T05:52:58;6.90;99.90
14317;DHT22;7242;50.858;6.586;2023-02-11T05:55:59;6.90;99.90
14317;DHT22;7242;50.858;6.586;2023-02-11T06:02:00;6.90;99.90
14317;DHT22;7242;50.858;6.586;2023-02-11T06:08:03;6.90;99.90
14317;DHT22;7242;50.858;6.586;2023-02-11T06:11:03;6.90;99.90
14317;DHT22;7242;50.858;6.586;2023-02-11T06:14:04;7.00;99.90
14317;DHT22;7242;50.858;6.586;2023-02-11T06:17:05;7.00;99.90
14317;DHT22;7242;50.858;6.586;2023-02-11T06:20:07;7.00;99.90
14317;DHT22;7242;50.858;6.586;2023-02-11T06:23:08;7.00;99.90
14317;DHT22;7242;50.858;6.586;2023-02-11T06:26:16;7.00;99.90
14317;DHT22;7242;50.858;6.586;2023-02-11T06:29:17;7.00;99.90
14317;DHT22;7242;50.858;6.586;2023-02-11T06:35:19;7.00;99.90
14317;DHT22;7242;50.858;6.586;2023-02-11T06:41:22;7.00;99.90
14317;DHT22;7242;50.858;6.586;2023-02-11T06:44:22;7.00;99.90
14317;DHT22;7242;50.858;6.586;2023-02-11T06:47:23;7.00;99.90
14317;DHT22;7242;50.858;6.586;2023-02-11T06:50:24;7.10;99.90
14317;DHT22;7242;50.858;6.586;2023-02-11T06:53:24;6.90;99.90
14317;DHT22;7242;50.858;6.586;2023-02-11T06:59:29;7.10;99.90
14317;DHT22;7242;50.858;6.586;2023-02-11T07:02:30;7.10;99.90
14317;DHT22;7242;50.858;6.586;2023-02-11T07:05:31;7.10;99.90
14317;DHT22;7242;50.858;6.586;2023-02-11T07:08:34;7.10;99.90
14317;DHT22;7242;50.858;6.586;2023-02-11T07:14:37;7.00;99.90
14317;DHT22;7242;50.858;6.586;2023-02-11T07:17:37;7.00;99.90
14317;DHT22;7242;50.858;6.586;2023-02-11T07:26:40;7.10;99.90
14317;DHT22;7242;50.858;6.586;2023-02-11T07:32:42;7.10;99.90
14317;DHT22;7242;50.858;6.586;2023-02-11T07:41:45;7.10;99.90
14317;DHT22;7242;50.858;6.586;2023-02-11T07:47:49;7.10;99.90
14317;DHT22;7242;50.858;6.586;2023-02-11T07:50:50;7.20;99.90
14317;DHT22;7242;50.858;6.586;2023-02-11T07:56:52;7.20;99.90
14317;DHT22;7242;50.858;6.586;2023-02-11T07:59:52;7.30;99.90
14317;DHT22;7242;50.858;6.586;2023-02-11T08:05:54;7.20;99.90
14317;DHT22;7242;50.858;6.586;2023-02-11T08:11:57;7.20;99.90
14317;DHT22;7242;50.858;6.586;2023-02-11T08:14:57;7.20;99.90
14317;DHT22;7242;50.858;6.586;2023-02-11T08:17:58;10.00;99.90
14317;DHT22;7242;50.858;6.586;2023-02-11T08:21:06;7.20;99.90
14317;DHT22;7242;50.858;6.586;2023-02-11T08:24:08;7.20;99.90
14317;DHT22;7242;50.858;6.586;2023-02-11T08:27:08;7.20;99.90
14317;DHT22;7242;50.858;6.586;2023-02-11T08:30:10;7.30;99.90
14317;DHT22;7242;50.858;6.586;2023-02-11T08:33:10;7.30;99.90
14317;DHT22;7242;50.858;6.586;2023-02-11T08:39:17;7.30;99.90
14317;DHT22;7242;50.858;6.586;2023-02-11T08:42:18;7.20;99.90
14317;DHT22;7242;50.858;6.586;2023-02-11T08:45:18;7.20;99.90
14317;DHT22;7242;50.858;6.586;2023-02-11T08:48:19;7.20;99.90
14317;DHT22;7242;50.858;6.586;2023-02-11T08:51:26;7.20;99.90
14317;DHT22;7242;50.858;6.586;2023-02-11T08:54:27;7.30;99.90
14317;DHT22;7242;50.858;6.586;2023-02-11T08:57:27;7.40;99.90
14317;DHT22;7242;50.858;6.586;2023-02-11T09:00:28;7.40;99.90
14317;DHT22;7242;50.858;6.586;2023-02-11T09:03:29;7.50;99.90
14317;DHT22;7242;50.858;6.586;2023-02-11T09:06:31;7.50;99.90
14317;DHT22;7242;50.858;6.586;2023-02-11T09:09:31;7.60;99.90
14317;DHT22;7242;50.858;6.586;2023-02-11T09:12:32;7.70;99.90
14317;DHT22;7242;50.858;6.586;2023-02-11T09:15:33;7.70;99.90
14317;DHT22;7242;50.858;6.586;2023-02-11T09:18:34;7.80;99.90
14317;DHT22;7242;50.858;6.586;2023-02-11T09:21:35;7.80;99.90
14317;DHT22;7242;50.858;6.586;2023-02-11T09:24:36;7.80;99.90
14317;DHT22;7242;50.858;6.586;2023-02-11T09:27:36;7.90;99.90
14317;DHT22;7242;50.858;6.586;2023-02-11T09:30:38;7.90;99.90
14317;DHT22;7242;50.858;6.586;2023-02-11T09:33:40;8.00;99.90
14317;DHT22;7242;50.858;6.586;2023-02-11T09:36:47;8.10;99.90
14317;DHT22;7242;50.858;6.586;2023-02-11T09:39:48;8.20;99.90
14317;DHT22;7242;50.858;6.586;2023-02-11T09:43:11;8.20;99.90
14317;DHT22;7242;50.858;6.586;2023-02-11T09:46:14;8.30;99.90
14317;DHT22;7242;50.858;6.586;2023-02-11T09:49:20;8.30;99.90
14317;DHT22;7242;50.858;6.586;2023-02-11T09:55:59;8.40;99.90
14317;DHT22;7242;50.858;6.586;2023-02-11T09:59:00;8.40;99.90
14317;DHT22;7242;50.858;6.586;2023-02-11T10:25:38;8.30;99.90
14317;DHT22;7242;50.858;6.586;2023-02-11T10:28:41;8.30;99.90
14317;DHT22;7242;50.858;6.586;2023-02-11T10:31:44;8.30;99.90
14317;DHT22;7242;50.858;6.586;2023-02-11T10:34:45;8.20;99.90
14317;DHT22;7242;50.858;6.586;2023-02-11T10:37:47;8.30;99.90
14317;DHT22;7242;50.858;6.586;2023-02-11T10:40:48;8.30;99.90
14317;DHT22;7242;50.858;6.586;2023-02-11T10:43:49;8.40;99.90
14317;DHT22;7242;50.858;6.586;2023-02-11T10:46:51;8.40;99.90
14317;DHT22;7242;50.858;6.586;2023-02-11T10:49:51;8.50;99.90
14317;DHT22;7242;50.858;6.586;2023-02-11T10:52:52;8.60;99.90
14317;DHT22;7242;50.858;6.586;2023-02-11T10:56:13;8.60;99.90
14317;DHT22;7242;50.858;6.586;2023-02-11T10:59:26;8.60;99.90
14317;DHT22;7242;50.858;6.586;2023-02-11T11:02:29;8.60;99.90
14317;DHT22;7242;50.858;6.586;2023-02-11T11:08:51;8.60;99.90
14317;DHT22;7242;50.858;6.586;2023-02-11T11:11:52;8.60;99.90
14317;DHT22;7242;50.858;6.586;2023-02-11T11:15:02;8.50;99.90
14317;DHT22;7242;50.858;6.586;2023-02-11T11:18:17;8.50;99.90
14317;DHT22;7242;50.858;6.586;2023-02-11T11:21:25;8.40;99.90
14317;DHT22;7242;50.858;6.586;2023-02-11T11:24:43;8.40;99.90
14317;DHT22;7242;50.858;6.586;2023-02-11T11:27:50;8.40;99.90
14317;DHT22;7242;50.858;6.586;2023-02-11T11:30:53;8.30;99.90
14317;DHT22;7242;50.858;6.586;2023-02-11T11:33:57;8.30;99.90
14317;DHT22;7242;50.858;6.586;2023-02-11T11:37:01;8.40;99.90
14317;DHT22;7242;50.858;6.586;2023-02-11T11:40:30;8.40;99.90
14317;DHT22;7242;50.858;6.586;2023-02-11T11:43:31;8.50;99.90
14317;DHT22;7242;50.858;6.586;2023-02-11T11:46:35;8.60;99.90
14317;DHT22;7242;50.858;6.586;2023-02-11T11:56:31;8.60;99.90
14317;DHT22;7242;50.858;6.586;2023-02-11T11:59:31;8.60;99.90
14317;DHT22;7242;50.858;6.586;2023-02-11T12:05:57;8.70;99.90
14317;DHT22;7242;50.858;6.586;2023-02-11T12:09:24;8.70;99.90
14317;DHT22;7242;50.858;6.586;2023-02-11T12:12:39;8.70;99.90
14317;DHT22;7242;50.858;6.586;2023-02-11T12:16:03;8.70;99.90
14317;DHT22;7242;50.858;6.586;2023-02-11T12:22:37;8.70;99.90
14317;DHT22;7242;50.858;6.586;2023-02-11T12:25:50;8.80;99.90
14317;DHT22;7242;50.858;6.586;2023-02-11T12:29:26;8.80;99.90
14317;DHT22;7242;50.858;6.586;2023-02-11T12:42:20;8.70;99.90
14317;DHT22;7242;50.858;6.586;2023-02-11T12:59:32;8.70;99.90
14317;DHT22;7242;50.858;6.586;2023-02-11T13:05:52;8.80;99.90
14317;DHT22;7242;50.858;6.586;2023-02-11T13:08:58;7.20;99.90
14317;DHT22;7242;50.858;6.586;2023-02-11T13:12:02;8.90;99.90
14317;DHT22;7242;50.858;6.586;2023-02-11T13:15:29;8.90;99.90
14317;DHT22;7242;50.858;6.586;2023-02-11T13:22:12;8.80;99.90
14317;DHT22;7242;50.858;6.586;2023-02-11T13:25:28;8.80;99.90
14317;DHT22;7242;50.858;6.586;2023-02-11T13:28:53;8.70;99.90
14317;DHT22;7242;50.858;6.586;2023-02-11T13:32:09;8.80;99.90
14317;DHT22;7242;50.858;6.586;2023-02-11T13:35:26;8.80;99.90
14317;DHT22;7242;50.858;6.586;2023-02-11T13:38:30;8.80;99.90
14317;DHT22;7242;50.858;6.586;2023-02-11T13:41:39;8.80;99.90
14317;DHT22;7242;50.858;6.586;2023-02-11T13:44:40;8.80;99.90
14317;DHT22;7242;50.858;6.586;2023-02-11T13:47:41;7.70;99.90
14317;DHT22;7242;50.858;6.586;2023-02-11T13:50:48;8.80;99.90
14317;DHT22;7242;50.858;6.586;2023-02-11T13:53:55;8.80;99.90
14317;DHT22;7242;50.858;6.586;2023-02-11T13:57:30;8.90;99.90
14317;DHT22;7242;50.858;6.586;2023-02-11T14:03:37;8.90;99.90
14317;DHT22;7242;50.858;6.586;2023-02-11T14:10:48;8.90;99.90
14317;DHT22;7242;50.858;6.586;2023-02-11T14:20:33;9.00;99.90
14317;DHT22;7242;50.858;6.586;2023-02-11T14:23:34;9.00;99.90
14317;DHT22;7242;50.858;6.586;2023-02-11T14:36:53;9.10;99.90
14317;DHT22;7242;50.858;6.586;2023-02-11T14:43:10;9.20;99.90
14317;DHT22;7242;50.858;6.586;2023-02-11T14:46:14;9.20;99.90
14317;DHT22;7242;50.858;6.586;2023-02-11T14:49:23;9.20;99.90
14317;DHT22;7242;50.858;6.586;2023-02-11T14:52:27;9.20;99.90
14317;DHT22;7242;50.858;6.586;2023-02-11T14:55:32;9.20;99.90
14317;DHT22;7242;50.858;6.586;2023-02-11T15:01:40;9.20;99.90
14317;DHT22;7242;50.858;6.586;2023-02-11T15:04:41;9.20;99.90
14317;DHT22;7242;50.858;6.586;2023-02-11T15:07:49;9.20;99.90
14317;DHT22;7242;50.858;6.586;2023-02-11T15:10:51;9.30;99.90
14317;DHT22;7242;50.858;6.586;2023-02-11T15:13:54;9.40;99.90
14317;DHT22;7242;50.858;6.586;2023-02-11T15:16:58;9.40;99.90
14317;DHT22;7242;50.858;6.586;2023-02-11T15:20:01;9.50;99.90
14317;DHT22;7242;50.858;6.586;2023-02-11T15:23:05;9.60;99.90
14317;DHT22;7242;50.858;6.586;2023-02-11T15:26:16;9.60;99.90
14317;DHT22;7242;50.858;6.586;2023-02-11T15:29:23;9.60;99.90
14317;DHT22;7242;50.858;6.586;2023-02-11T15:32:25;9.60;99.90
14317;DHT22;7242;50.858;6.586;2023-02-11T15:35:45;9.60;99.90
14317;DHT22;7242;50.858;6.586;2023-02-11T15:39:15;9.60;99.90
14317;DHT22;7242;50.858;6.586;2023-02-11T15:45:24;9.60;99.90
14317;DHT22;7242;50.858;6.586;2023-02-11T15:48:36;9.60;99.90
14317;DHT22;7242;50.858;6.586;2023-02-11T15:51:37;9.60;99.90
14317;DHT22;7242;50.858;6.586;2023-02-11T15:54:39;9.50;99.90
14317;DHT22;7242;50.858;6.586;2023-02-11T15:57:50;9.50;99.90
14317;DHT22;7242;50.858;6.586;2023-02-11T16:00:52;9.50;99.90
14317;DHT22;7242;50.858;6.586;2023-02-11T16:03:59;9.40;99.90
14317;DHT22;7242;50.858;6.586;2023-02-11T16:10:02;9.40;99.90
14317;DHT22;7242;50.858;6.586;2023-02-11T16:16:23;9.40;99.90
14317;DHT22;7242;50.858;6.586;2023-02-11T16:19:25;9.40;99.90
14317;DHT22;7242;50.858;6.586;2023-02-11T16:22:28;9.50;99.90
14317;DHT22;7242;50.858;6.586;2023-02-11T16:25:31;9.50;99.90
14317;DHT22;7242;50.858;6.586;2023-02-11T16:28:35;9.50;99.90
14317;DHT22;7242;50.858;6.586;2023-02-11T16:31:39;9.50;99.90
14317;DHT22;7242;50.858;6.586;2023-02-11T16:37:41;9.50;99.90
14317;DHT22;7242;50.858;6.586;2023-02-11T16:40:43;9.50;99.90
14317;DHT22;7242;50.858;6.586;2023-02-11T16:46:47;9.50;99.90
14317;DHT22;7242;50.858;6.586;2023-02-11T16:49:48;9.50;99.90
14317;DHT22;7242;50.858;6.586;2023-02-11T16:55:54;9.50;99.90
14317;DHT22;7242;50.858;6.586;2023-02-11T17:01:56;9.40;99.90
14317;DHT22;7242;50.858;6.586;2023-02-11T17:04:59;9.40;99.90
14317;DHT22;7242;50.858;6.586;2023-02-11T17:08:00;9.40;99.90
14317;DHT22;7242;50.858;6.586;2023-02-11T17:11:03;9.40;99.90
14317;DHT22;7242;50.858;6.586;2023-02-11T17:20:11;9.40;99.90
14317;DHT22;7242;50.858;6.586;2023-02-11T17:26:13;9.40;99.90
14317;DHT22;7242;50.858;6.586;2023-02-11T17:29:16;9.40;99.90
14317;DHT22;7242;50.858;6.586;2023-02-11T17:35:19;9.30;99.90
14317;DHT22;7242;50.858;6.586;2023-02-11T17:41:21;9.20;99.90
14317;DHT22;7242;50.858;6.586;2023-02-11T17:44:21;9.30;99.90
14317;DHT22;7242;50.858;6.586;2023-02-11T17:56:25;9.20;99.90
14317;DHT22;7242;50.858;6.586;2023-02-11T17:59:26;9.10;99.90
14317;DHT22;7242;50.858;6.586;2023-02-11T18:05:36;9.00;99.90
14317;DHT22;7242;50.858;6.586;2023-02-11T18:14:40;9.00;99.90
14317;DHT22;7242;50.858;6.586;2023-02-11T18:17:41;9.00;99.90
14317;DHT22;7242;50.858;6.586;2023-02-11T18:20:41;9.00;99.90
14317;DHT22;7242;50.858;6.586;2023-02-11T18:26:43;9.00;99.90
14317;DHT22;7242;50.858;6.586;2023-02-11T18:29:44;9.00;99.90
14317;DHT22;7242;50.858;6.586;2023-02-11T18:35:46;9.00;99.90
14317;DHT22;7242;50.858;6.586;2023-02-11T18:38:48;9.00;99.90
14317;DHT22;7242;50.858;6.586;2023-02-11T18:53:57;8.90;99.90
14317;DHT22;7242;50.858;6.586;2023-02-11T18:59:59;8.80;99.90
14317;DHT22;7242;50.858;6.586;2023-02-11T19:03:23;8.90;99.90
14317;DHT22;7242;50.858;6.586;2023-02-11T19:06:28;8.90;99.90
14317;DHT22;7242;50.858;6.586;2023-02-11T19:09:29;9.00;99.90
14317;DHT22;7242;50.858;6.586;2023-02-11T19:12:30;8.90;99.90
14317;DHT22;7242;50.858;6.586;2023-02-11T19:15:32;9.00;99.90
14317;DHT22;7242;50.858;6.586;2023-02-11T19:18:34;9.00;99.90
14317;DHT22;7242;50.858;6.586;2023-02-11T19:21:35;9.00;99.90
14317;DHT22;7242;50.858;6.586;2023-02-11T19:24:36;9.00;99.90
14317;DHT22;7242;50.858;6.586;2023-02-11T19:33:42;9.00;99.90
14317;DHT22;7242;50.858;6.586;2023-02-11T19:36:43;9.00;99.90
14317;DHT22;7242;50.858;6.586;2023-02-11T19:42:45;9.00;99.90
14317;DHT22;7242;50.858;6.586;2023-02-11T19:48:47;9.00;99.90
14317;DHT22;7242;50.858;6.586;2023-02-11T19:51:52;9.00;99.90
14317;DHT22;7242;50.858;6.586;2023-02-11T19:54:53;9.00;99.90
14317;DHT22;7242;50.858;6.586;2023-02-11T19:57:53;9.10;99.90
14317;DHT22;7242;50.858;6.586;2023-02-11T20:03:55;9.00;99.90
14317;DHT22;7242;50.858;6.586;2023-02-11T20:06:57;9.00;99.90
14317;DHT22;7242;50.858;6.586;2023-02-11T20:12:59;9.00;99.90
14317;DHT22;7242;50.858;6.586;2023-02-11T20:16:04;8.90;99.90
14317;DHT22;7242;50.858;6.586;2023-02-11T20:19:05;8.90;99.90
14317;DHT22;7242;50.858;6.586;2023-02-11T20:22:05;8.80;99.90
14317;DHT22;7242;50.858;6.586;2023-02-11T20:25:06;8.80;99.90
14317;DHT22;7242;50.858;6.586;2023-02-11T20:28:07;8.70;99.90
14317;DHT22;7242;50.858;6.586;2023-02-11T20:31:08;8.70;99.90
14317;DHT22;7242;50.858;6.586;2023-02-11T20:34:12;8.70;99.90
14317;DHT22;7242;50.858;6.586;2023-02-11T20:46:20;8.70;99.90
14317;DHT22;7242;50.858;6.586;2023-02-11T20:49:22;8.70;99.90
14317;DHT22;7242;50.858;6.586;2023-02-11T20:55:24;8.70;99.90
14317;DHT22;7242;50.858;6.586;2023-02-11T20:58:25;8.80;99.90
14317;DHT22;7242;50.858;6.586;2023-02-11T21:01:29;8.80;99.90
14317;DHT22;7242;50.858;6.586;2023-02-11T21:13:39;9.00;99.90
14317;DHT22;7242;50.858;6.586;2023-02-11T21:19:41;9.00;99.90
14317;DHT22;7242;50.858;6.586;2023-02-11T21:22:42;9.00;99.90
14317;DHT22;7242;50.858;6.586;2023-02-11T21:25:43;9.00;99.90
14317;DHT22;7242;50.858;6.586;2023-02-11T21:31:45;9.10;99.90
14317;DHT22;7242;50.858;6.586;2023-02-11T21:34:46;9.10;99.90
14317;DHT22;7242;50.858;6.586;2023-02-11T21:37:46;9.10;99.90
14317;DHT22;7242;50.858;6.586;2023-02-11T21:43:49;9.10;99.90
14317;DHT22;7242;50.858;6.586;2023-02-11T21:52:51;9.10;99.90
14317;DHT22;7242;50.858;6.586;2023-02-11T21:56:22;9.10;99.90
14317;DHT22;7242;50.858;6.586;2023-02-11T22:02:22;9.10;99.90
14317;DHT22;7242;50.858;6.586;2023-02-11T22:05:23;9.10;99.90
14317;DHT22;7242;50.858;6.586;2023-02-11T22:17:27;9.20;99.90
14317;DHT22;7242;50.858;6.586;2023-02-11T22:20:27;9.20;99.90
14317;DHT22;7242;50.858;6.586;2023-02-11T22:32:32;9.10;99.90
14317;DHT22;7242;50.858;6.586;2023-02-11T22:44:37;9.10;99.90
14317;DHT22;7242;50.858;6.586;2023-02-11T22:47:38;9.00;99.90
14317;DHT22;7242;50.858;6.586;2023-02-11T22:50:38;9.10;99.90
14317;DHT22;7242;50.858;6.586;2023-02-11T22:56:40;9.10;99.90
14317;DHT22;7242;50.858;6.586;2023-02-11T23:05:43;9.10;99.90
14317;DHT22;7242;50.858;6.586;2023-02-11T23:08:44;9.10;99.90
14317;DHT22;7242;50.858;6.586;2023-02-11T23:14:49;9.20;99.90
14317;DHT22;7242;50.858;6.586;2023-02-11T23:20:51;9.20;99.90
14317;DHT22;7242;50.858;6.586;2023-02-11T23:24:00;9.10;99.90
14317;DHT22;7242;50.858;6.586;2023-02-11T23:27:01;9.10;99.90
14317;DHT22;7242;50.858;6.586;2023-02-11T23:30:03;9.10;99.90
14317;DHT22;7242;50.858;6.586;2023-02-11T23:33:04;9.20;99.90
14317;DHT22;7242;50.858;6.586;2023-02-11T23:36:05;9.00;99.90
14317;DHT22;7242;50.858;6.586;2023-02-11T23:45:08;9.20;99.90
14317;DHT22;7242;50.858;6.586;2023-02-11T23:48:09;9.10;99.90
14317;DHT22;7242;50.858;6.586;2023-02-11T23:51:10;9.10;99.90
14317;DHT22;7242;50.858;6.586;2023-02-11T23:54:12;9.10;99.90
